sensor_id;sensor_type;location;lat;lon;timestamp;pressure;altitude;pressure_sealevel;temperature;humidity
43420;BME280;29017;51.514;-0.178;2023-05-24T00:00:02;102171.88;;;15.46;63.86
43420;BME280;29017;51.514;-0.178;2023-05-24T00:02:31;102179.00;;;15.45;63.51
43420;BME280;29017;51.514;-0.178;2023-05-24T00:04:59;102181.00;;;15.43;63.23
43420;BME280;29017;51.514;-0.178;2023-05-24T00:07:30;102176.34;;;15.45;66.46
43420;BME280;29017;51.514;-0.178;2023-05-24T00:09:57;102172.72;;;15.46;64.53
43420;BME280;29017;51.514;-0.178;2023-05-24T00:12:24;102172.03;;;15.44;63.72
43420;BME280;29017;51.514;-0.178;2023-05-24T00:14:51;102176.66;;;15.42;63.23
43420;BME280;29017;51.514;-0.178;2023-05-24T00:17:18;102181.00;;;15.43;63.18
43420;BME280;29017;51.514;-0.178;2023-05-24T00:19:45;102174.69;;;15.44;65.59
43420;BME280;29017;51.514;-0.178;2023-05-24T00:22:12;102178.16;;;15.45;63.54
43420;BME280;29017;51.514;-0.178;2023-05-24T00:24:40;102174.53;;;15.46;63.04
43420;BME280;29017;51.514;-0.178;2023-05-24T00:27:07;102173.56;;;15.47;63.04
43420;BME280;29017;51.514;-0.178;2023-05-24T00:29:34;102172.25;;;15.51;62.84
43420;BME280;29017;51.514;-0.178;2023-05-24T00:32:01;102174.91;;;15.51;62.88
43420;BME280;29017;51.514;-0.178;2023-05-24T00:34:28;102169.63;;;15.51;62.64
43420;BME280;29017;51.514;-0.178;2023-05-24T00:36:56;102167.09;;;15.49;62.58
43420;BME280;29017;51.514;-0.178;2023-05-24T00:39:23;102161.78;;;15.49;62.28
43420;BME280;29017;51.514;-0.178;2023-05-24T00:41:50;102161.53;;;15.52;62.77
43420;BME280;29017;51.514;-0.178;2023-05-24T00:44:17;102164.56;;;15.57;61.56
43420;BME280;29017;51.514;-0.178;2023-05-24T00:46:44;102163.75;;;15.57;61.03
43420;BME280;29017;51.514;-0.178;2023-05-24T00:49:12;102163.75;;;15.57;60.68
43420;BME280;29017;51.514;-0.178;2023-05-24T00:51:40;102159.28;;;15.57;61.98
43420;BME280;29017;51.514;-0.178;2023-05-24T00:54:07;102163.75;;;15.57;61.30
43420;BME280;29017;51.514;-0.178;2023-05-24T00:56:34;102163.59;;;15.58;60.39
43420;BME280;29017;51.514;-0.178;2023-05-24T00:59:01;102165.56;;;15.56;60.41
43420;BME280;29017;51.514;-0.178;2023-05-24T01:01:28;102155.78;;;15.57;62.32
43420;BME280;29017;51.514;-0.178;2023-05-24T01:03:57;102163.75;;;15.57;60.85
43420;BME280;29017;51.514;-0.178;2023-05-24T01:06:27;102158.56;;;15.55;60.39
43420;BME280;29017;51.514;-0.178;2023-05-24T01:09:32;102154.28;;;15.54;60.29
43420;BME280;29017;51.514;-0.178;2023-05-24T01:12:05;102150.22;;;15.50;60.31
43420;BME280;29017;51.514;-0.178;2023-05-24T01:14:40;102149.81;;;15.45;60.73
43420;BME280;29017;51.514;-0.178;2023-05-24T01:17:17;102155.44;;;15.42;60.87
43420;BME280;29017;51.514;-0.178;2023-05-24T01:19:56;102148.63;;;15.39;60.89
43420;BME280;29017;51.514;-0.178;2023-05-24T01:27:33;102132.50;;;15.33;60.27
43420;BME280;29017;51.514;-0.178;2023-05-24T01:30:03;102138.41;;;15.27;60.14
43420;BME280;29017;51.514;-0.178;2023-05-24T01:32:30;102139.00;;;15.21;60.35
43420;BME280;29017;51.514;-0.178;2023-05-24T01:34:58;102140.94;;;15.19;60.04
43420;BME280;29017;51.514;-0.178;2023-05-24T01:37:25;102129.53;;;15.18;60.91
43420;BME280;29017;51.514;-0.178;2023-05-24T01:39:53;102130.50;;;15.17;60.12
43420;BME280;29017;51.514;-0.178;2023-05-24T01:42:26;102138.59;;;15.16;60.26
43420;BME280;29017;51.514;-0.178;2023-05-24T01:50:41;102135.56;;;15.11;61.12
43420;BME280;29017;51.514;-0.178;2023-05-24T01:53:12;102134.34;;;15.05;61.50
43420;BME280;29017;51.514;-0.178;2023-05-24T01:55:43;102133.00;;;15.01;62.48
43420;BME280;29017;51.514;-0.178;2023-05-24T01:58:15;102130.78;;;14.96;63.48
43420;BME280;29017;51.514;-0.178;2023-05-24T02:00:44;102131.38;;;14.90;63.44
43420;BME280;29017;51.514;-0.178;2023-05-24T02:03:13;102128.19;;;14.87;63.20
43420;BME280;29017;51.514;-0.178;2023-05-24T02:05:41;102124.00;;;14.84;63.58
43420;BME280;29017;51.514;-0.178;2023-05-24T02:08:10;102124.84;;;14.85;65.13
43420;BME280;29017;51.514;-0.178;2023-05-24T02:10:39;102124.72;;;14.86;64.41
43420;BME280;29017;51.514;-0.178;2023-05-24T02:13:07;102123.56;;;14.89;64.24
43420;BME280;29017;51.514;-0.178;2023-05-24T02:15:34;102132.22;;;14.91;63.50
43420;BME280;29017;51.514;-0.178;2023-05-24T02:18:01;102125.38;;;14.88;63.81
43420;BME280;29017;51.514;-0.178;2023-05-24T02:20:29;102123.03;;;14.85;64.31
43420;BME280;29017;51.514;-0.178;2023-05-24T02:22:57;102122.34;;;14.83;64.53
43420;BME280;29017;51.514;-0.178;2023-05-24T02:25:24;102123.88;;;14.86;64.87
43420;BME280;29017;51.514;-0.178;2023-05-24T02:27:51;102123.03;;;14.85;64.81
43420;BME280;29017;51.514;-0.178;2023-05-24T02:30:19;102122.19;;;14.85;65.21
43420;BME280;29017;51.514;-0.178;2023-05-24T02:32:46;102115.22;;;14.84;65.43
43420;BME280;29017;51.514;-0.178;2023-05-24T02:35:13;102119.56;;;14.85;65.33
43420;BME280;29017;51.514;-0.178;2023-05-24T02:37:40;102115.41;;;14.82;65.67
43420;BME280;29017;51.514;-0.178;2023-05-24T02:40:08;102118.72;;;14.84;68.29
43420;BME280;29017;51.514;-0.178;2023-05-24T02:42:35;102114.00;;;14.78;66.80
43420;BME280;29017;51.514;-0.178;2023-05-24T02:45:03;102109.16;;;14.74;66.30
43420;BME280;29017;51.514;-0.178;2023-05-24T02:47:30;102115.19;;;14.66;66.70
43420;BME280;29017;51.514;-0.178;2023-05-24T02:49:57;102117.47;;;14.61;67.44
43420;BME280;29017;51.514;-0.178;2023-05-24T02:52:24;102121.09;;;14.60;68.17
43420;BME280;29017;51.514;-0.178;2023-05-24T02:54:52;102116.38;;;14.54;67.87
43420;BME280;29017;51.514;-0.178;2023-05-24T02:57:19;102116.22;;;14.55;68.17
43420;BME280;29017;51.514;-0.178;2023-05-24T02:59:46;102119.72;;;14.56;68.09
43420;BME280;29017;51.514;-0.178;2023-05-24T03:02:13;102118.88;;;14.55;69.36
43420;BME280;29017;51.514;-0.178;2023-05-24T03:04:41;102112.03;;;14.53;69.57
43420;BME280;29017;51.514;-0.178;2023-05-24T03:07:08;102111.25;;;14.52;69.92
43420;BME280;29017;51.514;-0.178;2023-05-24T03:09:36;102108.59;;;14.52;70.17
43420;BME280;29017;51.514;-0.178;2023-05-24T03:12:04;102105.78;;;14.54;70.92
43420;BME280;29017;51.514;-0.178;2023-05-24T03:14:31;102110.09;;;14.55;71.41
43420;BME280;29017;51.514;-0.178;2023-05-24T03:16:58;102103.97;;;14.54;71.57
43420;BME280;29017;51.514;-0.178;2023-05-24T03:19:25;102108.72;;;14.51;71.56
43420;BME280;29017;51.514;-0.178;2023-05-24T03:21:52;102111.81;;;14.46;72.39
43420;BME280;29017;51.514;-0.178;2023-05-24T03:24:19;102106.53;;;14.46;73.04
43420;BME280;29017;51.514;-0.178;2023-05-24T03:26:47;102111.81;;;14.46;72.97
43420;BME280;29017;51.514;-0.178;2023-05-24T03:29:14;102113.63;;;14.46;73.19
43420;BME280;29017;51.514;-0.178;2023-05-24T03:31:41;102114.75;;;14.43;73.28
43420;BME280;29017;51.514;-0.178;2023-05-24T03:34:09;102113.38;;;14.39;73.62
43420;BME280;29017;51.514;-0.178;2023-05-24T03:36:36;102114.19;;;14.40;73.76
43420;BME280;29017;51.514;-0.178;2023-05-24T03:39:03;102109.88;;;14.39;73.77
43420;BME280;29017;51.514;-0.178;2023-05-24T03:41:30;102112.69;;;14.37;73.89
43420;BME280;29017;51.514;-0.178;2023-05-24T03:43:58;102111.97;;;14.35;74.04
43420;BME280;29017;51.514;-0.178;2023-05-24T03:46:25;102112.53;;;14.29;74.99
43420;BME280;29017;51.514;-0.178;2023-05-24T03:48:52;102104.06;;;14.26;74.86
43420;BME280;29017;51.514;-0.178;2023-05-24T03:51:19;102123.69;;;14.23;74.63
43420;BME280;29017;51.514;-0.178;2023-05-24T03:53:49;102116.91;;;14.21;74.76
43420;BME280;29017;51.514;-0.178;2023-05-24T03:56:16;102118.72;;;14.20;75.23
43420;BME280;29017;51.514;-0.178;2023-05-24T03:58:43;102118.97;;;14.17;74.74
43420;BME280;29017;51.514;-0.178;2023-05-24T04:01:10;102111.75;;;14.19;75.04
43420;BME280;29017;51.514;-0.178;2023-05-24T04:03:54;102119.41;;;14.12;75.06
43420;BME280;29017;51.514;-0.178;2023-05-24T04:06:22;102101.06;;;14.11;74.86
43420;BME280;29017;51.514;-0.178;2023-05-24T04:08:55;102110.81;;;14.10;75.05
43420;BME280;29017;51.514;-0.178;2023-05-24T04:11:23;102114.56;;;14.08;74.99
43420;BME280;29017;51.514;-0.178;2023-05-24T04:13:54;102115.81;;;14.04;75.18
43420;BME280;29017;51.514;-0.178;2023-05-24T04:16:22;102113.47;;;14.01;75.23
43420;BME280;29017;51.514;-0.178;2023-05-24T04:18:53;102114.31;;;14.01;75.78
43420;BME280;29017;51.514;-0.178;2023-05-24T04:21:21;102109.81;;;14.02;75.76
43420;BME280;29017;51.514;-0.178;2023-05-24T04:23:49;102115.97;;;14.02;75.71
43420;BME280;29017;51.514;-0.178;2023-05-24T04:26:16;102114.00;;;14.04;75.31
43420;BME280;29017;51.514;-0.178;2023-05-24T04:28:43;102113.88;;;14.06;75.17
43420;BME280;29017;51.514;-0.178;2023-05-24T04:31:12;102106.06;;;14.04;75.07
43420;BME280;29017;51.514;-0.178;2023-05-24T04:33:39;102108.19;;;14.01;75.72
43420;BME280;29017;51.514;-0.178;2023-05-24T04:36:07;102105.53;;;14.01;75.54
43420;BME280;29017;51.514;-0.178;2023-05-24T04:38:38;102112.34;;;14.03;75.65
43420;BME280;29017;51.514;-0.178;2023-05-24T04:41:05;102109.13;;;14.09;75.76
43420;BME280;29017;51.514;-0.178;2023-05-24T04:43:33;102110.63;;;14.12;75.42
43420;BME280;29017;51.514;-0.178;2023-05-24T04:46:01;102110.81;;;14.10;74.79
43420;BME280;29017;51.514;-0.178;2023-05-24T04:48:29;102115.94;;;14.12;74.36
43420;BME280;29017;51.514;-0.178;2023-05-24T04:50:56;102119.41;;;14.12;74.53
43420;BME280;29017;51.514;-0.178;2023-05-24T04:53:24;102113.00;;;14.15;74.24
43420;BME280;29017;51.514;-0.178;2023-05-24T04:55:52;102112.88;;;14.17;73.86
43420;BME280;29017;51.514;-0.178;2023-05-24T04:58:19;102092.66;;;14.16;73.53
43420;BME280;29017;51.514;-0.178;2023-05-24T05:00:46;102100.63;;;14.16;73.70
43420;BME280;29017;51.514;-0.178;2023-05-24T05:03:14;102099.34;;;14.20;73.80
43420;BME280;29017;51.514;-0.178;2023-05-24T05:05:41;102097.22;;;14.23;73.13
43420;BME280;29017;51.514;-0.178;2023-05-24T05:08:09;102092.78;;;14.24;72.85
43420;BME280;29017;51.514;-0.178;2023-05-24T05:10:36;102093.47;;;14.26;72.50
43420;BME280;29017;51.514;-0.178;2023-05-24T05:13:03;102085.22;;;14.29;72.82
43420;BME280;29017;51.514;-0.178;2023-05-24T05:15:30;102086.06;;;14.29;72.61
43420;BME280;29017;51.514;-0.178;2023-05-24T05:17:58;102093.56;;;14.34;72.44
43420;BME280;29017;51.514;-0.178;2023-05-24T05:20:26;102090.78;;;14.35;72.54
43420;BME280;29017;51.514;-0.178;2023-05-24T05:22:53;102090.69;;;14.37;72.58
43420;BME280;29017;51.514;-0.178;2023-05-24T05:25:20;102102.09;;;14.37;72.26
43420;BME280;29017;51.514;-0.178;2023-05-24T05:27:48;102099.28;;;14.39;72.22
43420;BME280;29017;51.514;-0.178;2023-05-24T05:30:15;102102.63;;;14.41;72.32
43420;BME280;29017;51.514;-0.178;2023-05-24T05:32:42;102111.13;;;14.44;72.48
43420;BME280;29017;51.514;-0.178;2023-05-24T05:35:09;102104.72;;;14.47;72.20
43420;BME280;29017;51.514;-0.178;2023-05-24T05:37:37;102111.25;;;14.52;72.05
43420;BME280;29017;51.514;-0.178;2023-05-24T05:40:04;102105.78;;;14.54;72.59
43420;BME280;29017;51.514;-0.178;2023-05-24T05:42:31;102109.78;;;14.58;72.00
43420;BME280;29017;51.514;-0.178;2023-05-24T05:44:58;102108.81;;;14.59;71.41
43420;BME280;29017;51.514;-0.178;2023-05-24T05:47:26;102113.56;;;14.55;71.91
43420;BME280;29017;51.514;-0.178;2023-05-24T05:49:53;102114.69;;;14.53;71.86
43420;BME280;29017;51.514;-0.178;2023-05-24T05:52:20;102121.00;;;14.52;72.03
43420;BME280;29017;51.514;-0.178;2023-05-24T05:54:47;102121.00;;;14.52;71.97
43420;BME280;29017;51.514;-0.178;2023-05-24T05:57:15;102125.84;;;14.57;72.06
43420;BME280;29017;51.514;-0.178;2023-05-24T05:59:42;102126.38;;;14.60;71.97
43420;BME280;29017;51.514;-0.178;2023-05-24T06:02:09;102126.25;;;14.62;72.22
43420;BME280;29017;51.514;-0.178;2023-05-24T06:04:38;102123.44;;;14.63;72.13
43420;BME280;29017;51.514;-0.178;2023-05-24T06:07:06;102126.63;;;14.67;72.88
43420;BME280;29017;51.514;-0.178;2023-05-24T06:09:33;102133.38;;;14.79;72.19
43420;BME280;29017;51.514;-0.178;2023-05-24T06:12:00;102130.59;;;15.25;70.47
43420;BME280;29017;51.514;-0.178;2023-05-24T06:14:27;102144.72;;;16.05;70.54
43420;BME280;29017;51.514;-0.178;2023-05-24T06:16:54;102138.78;;;16.71;65.70
43420;BME280;29017;51.514;-0.178;2023-05-24T06:19:25;102138.25;;;17.33;67.06
43420;BME280;29017;51.514;-0.178;2023-05-24T06:21:52;102130.16;;;17.75;61.74
43420;BME280;29017;51.514;-0.178;2023-05-24T06:24:20;102126.81;;;17.98;61.08
43420;BME280;29017;51.514;-0.178;2023-05-24T06:26:48;102131.16;;;17.90;60.02
43420;BME280;29017;51.514;-0.178;2023-05-24T06:29:16;102141.63;;;17.84;61.02
43420;BME280;29017;51.514;-0.178;2023-05-24T06:31:47;102142.63;;;17.83;61.51
43420;BME280;29017;51.514;-0.178;2023-05-24T06:34:15;102146.97;;;17.92;59.94
43420;BME280;29017;51.514;-0.178;2023-05-24T06:36:43;102145.81;;;17.86;59.69
43420;BME280;29017;51.514;-0.178;2023-05-24T06:39:14;102137.50;;;17.65;60.54
43420;BME280;29017;51.514;-0.178;2023-05-24T06:41:42;102144.13;;;17.37;61.88
43420;BME280;29017;51.514;-0.178;2023-05-24T06:44:10;102148.38;;;17.05;62.44
43420;BME280;29017;51.514;-0.178;2023-05-24T06:46:38;102149.44;;;16.79;63.23
43420;BME280;29017;51.514;-0.178;2023-05-24T06:49:05;102144.97;;;16.53;64.04
43420;BME280;29017;51.514;-0.178;2023-05-24T06:51:33;102144.38;;;16.34;65.19
43420;BME280;29017;51.514;-0.178;2023-05-24T06:54:00;102140.50;;;16.20;65.74
43420;BME280;29017;51.514;-0.178;2023-05-24T06:56:34;102139.91;;;16.08;66.34
43420;BME280;29017;51.514;-0.178;2023-05-24T06:59:01;102138.88;;;16.01;66.76
43420;BME280;29017;51.514;-0.178;2023-05-24T07:01:29;102139.19;;;15.98;67.19
43420;BME280;29017;51.514;-0.178;2023-05-24T07:03:56;102129.88;;;15.94;67.63
43420;BME280;29017;51.514;-0.178;2023-05-24T07:06:23;102136.03;;;15.95;68.81
43420;BME280;29017;51.514;-0.178;2023-05-24T07:08:51;102130.72;;;15.95;69.12
43420;BME280;29017;51.514;-0.178;2023-05-24T07:11:18;102138.22;;;15.99;69.23
43420;BME280;29017;51.514;-0.178;2023-05-24T07:13:45;102137.88;;;16.02;68.18
43420;BME280;29017;51.514;-0.178;2023-05-24T07:16:13;102148.25;;;16.13;67.12
43420;BME280;29017;51.514;-0.178;2023-05-24T07:18:40;102150.44;;;16.18;67.42
43420;BME280;29017;51.514;-0.178;2023-05-24T07:21:07;102144.66;;;16.22;66.61
43420;BME280;29017;51.514;-0.178;2023-05-24T07:23:34;102156.06;;;16.15;66.71
43420;BME280;29017;51.514;-0.178;2023-05-24T07:26:03;102149.94;;;16.14;66.79
43420;BME280;29017;51.514;-0.178;2023-05-24T07:28:31;102143.78;;;16.14;67.23
43420;BME280;29017;51.514;-0.178;2023-05-24T07:30:58;102151.84;;;16.30;66.65
43420;BME280;29017;51.514;-0.178;2023-05-24T07:33:25;102151.41;;;16.77;64.90
43420;BME280;29017;51.514;-0.178;2023-05-24T07:35:53;102156.34;;;17.14;64.35
43420;BME280;29017;51.514;-0.178;2023-05-24T07:38:20;102161.94;;;17.61;62.16
43420;BME280;29017;51.514;-0.178;2023-05-24T07:40:47;102160.09;;;17.93;60.78
43420;BME280;29017;51.514;-0.178;2023-05-24T07:43:15;102155.44;;;17.95;60.84
43420;BME280;29017;51.514;-0.178;2023-05-24T07:45:42;102153.69;;;18.35;61.04
43420;BME280;29017;51.514;-0.178;2023-05-24T07:48:10;102152.84;;;18.59;59.53
43420;BME280;29017;51.514;-0.178;2023-05-24T07:50:37;102147.72;;;18.80;58.88
43420;BME280;29017;51.514;-0.178;2023-05-24T07:53:04;102150.06;;;18.83;58.42
43420;BME280;29017;51.514;-0.178;2023-05-24T07:55:32;102147.50;;;18.90;59.14
43420;BME280;29017;51.514;-0.178;2023-05-24T07:57:59;102148.56;;;18.80;58.49
43420;BME280;29017;51.514;-0.178;2023-05-24T08:00:30;102146.00;;;18.56;58.63
43420;BME280;29017;51.514;-0.178;2023-05-24T08:02:59;102149.88;;;18.37;59.21
43420;BME280;29017;51.514;-0.178;2023-05-24T08:05:27;102151.75;;;18.21;60.05
43420;BME280;29017;51.514;-0.178;2023-05-24T08:07:55;102149.78;;;18.07;60.91
43420;BME280;29017;51.514;-0.178;2023-05-24T08:10:23;102148.25;;;18.04;61.05
43420;BME280;29017;51.514;-0.178;2023-05-24T08:12:51;102149.34;;;18.42;59.50
43420;BME280;29017;51.514;-0.178;2023-05-24T08:15:21;102145.97;;;18.95;58.98
43420;BME280;29017;51.514;-0.178;2023-05-24T08:17:49;102146.56;;;19.36;56.72
43420;BME280;29017;51.514;-0.178;2023-05-24T08:20:17;102143.69;;;19.46;56.56
43420;BME280;29017;51.514;-0.178;2023-05-24T08:22:45;102147.00;;;19.71;56.16
43420;BME280;29017;51.514;-0.178;2023-05-24T08:25:14;102145.25;;;19.78;55.33
43420;BME280;29017;51.514;-0.178;2023-05-24T08:27:42;102150.31;;;19.73;54.61
43420;BME280;29017;51.514;-0.178;2023-05-24T08:30:10;102139.16;;;19.69;54.35
43420;BME280;29017;51.514;-0.178;2023-05-24T08:32:39;102154.94;;;19.56;55.12
43420;BME280;29017;51.514;-0.178;2023-05-24T08:35:07;102149.91;;;19.38;55.54
43420;BME280;29017;51.514;-0.178;2023-05-24T08:37:46;102146.28;;;19.00;56.64
43420;BME280;29017;51.514;-0.178;2023-05-24T08:40:14;102145.41;;;18.77;57.46
43420;BME280;29017;51.514;-0.178;2023-05-24T08:42:43;102151.34;;;18.56;58.80
43420;BME280;29017;51.514;-0.178;2023-05-24T08:45:13;102139.69;;;18.57;58.67
43420;BME280;29017;51.514;-0.178;2023-05-24T08:47:42;102131.34;;;18.44;59.40
43420;BME280;29017;51.514;-0.178;2023-05-24T08:50:12;102131.03;;;18.39;60.06
43420;BME280;29017;51.514;-0.178;2023-05-24T08:52:41;102123.53;;;18.43;60.90
43420;BME280;29017;51.514;-0.178;2023-05-24T08:55:10;102125.88;;;18.54;60.09
43420;BME280;29017;51.514;-0.178;2023-05-24T08:57:38;102126.28;;;18.73;58.48
43420;BME280;29017;51.514;-0.178;2023-05-24T09:00:09;102125.81;;;18.62;58.36
43420;BME280;29017;51.514;-0.178;2023-05-24T09:02:40;102114.66;;;18.50;59.13
43420;BME280;29017;51.514;-0.178;2023-05-24T09:05:10;102112.53;;;18.46;58.96
43420;BME280;29017;51.514;-0.178;2023-05-24T09:07:39;102111.28;;;18.64;57.43
43420;BME280;29017;51.514;-0.178;2023-05-24T09:10:09;102112.13;;;18.96;56.95
43420;BME280;29017;51.514;-0.178;2023-05-24T09:12:37;102095.44;;;19.02;57.06
43420;BME280;29017;51.514;-0.178;2023-05-24T09:15:07;102104.09;;;19.04;57.20
43420;BME280;29017;51.514;-0.178;2023-05-24T09:17:35;102095.06;;;19.05;58.10
43420;BME280;29017;51.514;-0.178;2023-05-24T09:20:05;102100.91;;;19.08;57.46
43420;BME280;29017;51.514;-0.178;2023-05-24T09:22:37;102107.69;;;19.11;56.70
43420;BME280;29017;51.514;-0.178;2023-05-24T09:25:09;102104.41;;;19.09;57.00
43420;BME280;29017;51.514;-0.178;2023-05-24T09:27:37;102107.09;;;19.01;57.03
43420;BME280;29017;51.514;-0.178;2023-05-24T09:30:09;102101.28;;;18.97;57.02
43420;BME280;29017;51.514;-0.178;2023-05-24T09:32:38;102112.13;;;18.96;56.09
43420;BME280;29017;51.514;-0.178;2023-05-24T09:35:07;102109.81;;;18.93;55.89
43420;BME280;29017;51.514;-0.178;2023-05-24T09:37:36;102099.78;;;18.95;56.36
43420;BME280;29017;51.514;-0.178;2023-05-24T09:40:16;102102.00;;;18.91;56.34
43420;BME280;29017;51.514;-0.178;2023-05-24T09:42:44;102109.47;;;18.96;56.75
43420;BME280;29017;51.514;-0.178;2023-05-24T09:45:12;102113.63;;;18.98;56.78
43420;BME280;29017;51.514;-0.178;2023-05-24T09:47:41;102110.06;;;19.06;56.30
43420;BME280;29017;51.514;-0.178;2023-05-24T09:50:14;102113.88;;;19.11;55.89
43420;BME280;29017;51.514;-0.178;2023-05-24T09:52:44;102109.19;;;19.13;55.79
43420;BME280;29017;51.514;-0.178;2023-05-24T09:55:16;102106.94;;;19.25;54.94
43420;BME280;29017;51.514;-0.178;2023-05-24T09:57:49;102103.56;;;19.31;54.22
43420;BME280;29017;51.514;-0.178;2023-05-24T10:00:22;102111.22;;;19.34;54.44
43420;BME280;29017;51.514;-0.178;2023-05-24T10:03:01;102106.88;;;19.33;54.40
43420;BME280;29017;51.514;-0.178;2023-05-24T10:05:29;102105.06;;;19.34;55.10
43420;BME280;29017;51.514;-0.178;2023-05-24T10:07:57;102102.66;;;19.39;55.57
43420;BME280;29017;51.514;-0.178;2023-05-24T10:10:27;102101.91;;;19.53;55.70
43420;BME280;29017;51.514;-0.178;2023-05-24T10:12:56;102108.00;;;19.61;55.46
43420;BME280;29017;51.514;-0.178;2023-05-24T10:15:24;102098.72;;;19.72;54.65
43420;BME280;29017;51.514;-0.178;2023-05-24T10:17:54;102101.81;;;19.84;54.20
43420;BME280;29017;51.514;-0.178;2023-05-24T10:20:23;102096.19;;;19.93;53.62
43420;BME280;29017;51.514;-0.178;2023-05-24T10:22:54;102089.19;;;20.07;53.65
43420;BME280;29017;51.514;-0.178;2023-05-24T10:25:27;102090.28;;;20.13;53.97
43420;BME280;29017;51.514;-0.178;2023-05-24T10:27:57;102093.63;;;20.15;53.76
43420;BME280;29017;51.514;-0.178;2023-05-24T10:30:33;102091.78;;;20.15;53.72
43420;BME280;29017;51.514;-0.178;2023-05-24T10:33:05;102090.84;;;20.23;52.29
43420;BME280;29017;51.514;-0.178;2023-05-24T10:35:35;102085.88;;;20.20;51.73
43420;BME280;29017;51.514;-0.178;2023-05-24T10:38:05;102086.22;;;20.17;53.18
43420;BME280;29017;51.514;-0.178;2023-05-24T10:40:35;102084.38;;;20.17;53.84
43420;BME280;29017;51.514;-0.178;2023-05-24T10:43:07;102077.84;;;20.20;54.03
43420;BME280;29017;51.514;-0.178;2023-05-24T10:45:37;102085.50;;;20.23;53.34
43420;BME280;29017;51.514;-0.178;2023-05-24T10:50:41;102066.25;;;20.13;53.22
43420;BME280;29017;51.514;-0.178;2023-05-24T10:53:11;102072.41;;;20.13;53.37
43420;BME280;29017;51.514;-0.178;2023-05-24T11:00:56;102065.31;;;20.20;53.39
43420;BME280;29017;51.514;-0.178;2023-05-24T11:03:24;102074.81;;;20.23;54.75
43420;BME280;29017;51.514;-0.178;2023-05-24T11:05:53;102072.22;;;20.29;53.86
43420;BME280;29017;51.514;-0.178;2023-05-24T11:08:32;102076.31;;;20.40;52.41
43420;BME280;29017;51.514;-0.178;2023-05-24T11:11:02;102091.53;;;20.39;52.36
43420;BME280;29017;51.514;-0.178;2023-05-24T11:13:53;102080.91;;;20.46;52.86
43420;BME280;29017;51.514;-0.178;2023-05-24T11:16:31;102078.88;;;20.48;53.17
43420;BME280;29017;51.514;-0.178;2023-05-24T11:19:13;102072.41;;;20.42;53.48
43420;BME280;29017;51.514;-0.178;2023-05-24T11:21:45;102075.47;;;20.39;52.82
43420;BME280;29017;51.514;-0.178;2023-05-24T11:24:13;102077.69;;;20.36;52.73
43420;BME280;29017;51.514;-0.178;2023-05-24T11:26:40;102081.22;;;20.36;53.27
43420;BME280;29017;51.514;-0.178;2023-05-24T11:29:08;102074.38;;;20.34;53.36
43420;BME280;29017;51.514;-0.178;2023-05-24T11:31:36;102069.84;;;20.34;53.86
43420;BME280;29017;51.514;-0.178;2023-05-24T11:34:09;102077.22;;;20.32;53.98
43420;BME280;29017;51.514;-0.178;2023-05-24T11:36:37;102075.72;;;20.30;54.19
43420;BME280;29017;51.514;-0.178;2023-05-24T11:39:06;102077.84;;;20.20;55.13
43420;BME280;29017;51.514;-0.178;2023-05-24T11:41:36;102082.75;;;20.16;55.04
43420;BME280;29017;51.514;-0.178;2023-05-24T11:44:05;102072.34;;;20.21;54.06
43420;BME280;29017;51.514;-0.178;2023-05-24T11:46:33;102070.75;;;20.27;53.85
43420;BME280;29017;51.514;-0.178;2023-05-24T11:49:00;102068.38;;;20.32;53.40
43420;BME280;29017;51.514;-0.178;2023-05-24T11:51:29;102078.72;;;20.35;53.88
43420;BME280;29017;51.514;-0.178;2023-05-24T11:54:19;102079.59;;;20.42;53.16
43420;BME280;29017;51.514;-0.178;2023-05-24T11:57:01;102080.91;;;20.46;53.11
43420;BME280;29017;51.514;-0.178;2023-05-24T11:59:31;102070.00;;;20.47;53.68
43420;BME280;29017;51.514;-0.178;2023-05-24T12:02:03;102067.16;;;20.49;53.43
43420;BME280;29017;51.514;-0.178;2023-05-24T12:04:47;102060.72;;;20.43;53.26
43420;BME280;29017;51.514;-0.178;2023-05-24T12:07:15;102069.19;;;20.32;53.60
43420;BME280;29017;51.514;-0.178;2023-05-24T12:09:43;102074.44;;;20.26;54.13
43420;BME280;29017;51.514;-0.178;2023-05-24T12:12:11;102071.13;;;20.24;54.18
43420;BME280;29017;51.514;-0.178;2023-05-24T12:17:32;102061.94;;;20.41;53.70
43420;BME280;29017;51.514;-0.178;2023-05-24T12:20:01;102068.56;;;20.45;53.58
43420;BME280;29017;51.514;-0.178;2023-05-24T12:22:30;102069.47;;;20.37;53.40
43420;BME280;29017;51.514;-0.178;2023-05-24T12:24:58;102066.78;;;20.37;53.28
43420;BME280;29017;51.514;-0.178;2023-05-24T12:27:26;102061.94;;;20.41;52.79
43420;BME280;29017;51.514;-0.178;2023-05-24T12:29:57;102068.91;;;20.57;52.57
43420;BME280;29017;51.514;-0.178;2023-05-24T12:32:52;102061.84;;;20.70;51.85
43420;BME280;29017;51.514;-0.178;2023-05-24T12:35:26;102059.06;;;20.78;51.99
43420;BME280;29017;51.514;-0.178;2023-05-24T12:37:58;102062.81;;;20.84;51.92
43420;BME280;29017;51.514;-0.178;2023-05-24T12:40:32;102050.94;;;20.86;52.28
43420;BME280;29017;51.514;-0.178;2023-05-24T12:43:06;102053.78;;;20.85;51.80
43420;BME280;29017;51.514;-0.178;2023-05-24T12:45:58;102049.09;;;20.87;51.28
43420;BME280;29017;51.514;-0.178;2023-05-24T12:48:26;102045.25;;;20.96;51.26
43420;BME280;29017;51.514;-0.178;2023-05-24T12:50:54;102047.16;;;21.02;51.62
43420;BME280;29017;51.514;-0.178;2023-05-24T12:53:23;102045.94;;;21.05;51.29
43420;BME280;29017;51.514;-0.178;2023-05-24T12:55:54;102046.97;;;21.04;51.19
43420;BME280;29017;51.514;-0.178;2023-05-24T12:58:45;102041.34;;;20.99;52.15
43420;BME280;29017;51.514;-0.178;2023-05-24T13:01:13;102035.16;;;20.98;51.80
43420;BME280;29017;51.514;-0.178;2023-05-24T13:04:02;102042.19;;;20.99;51.17
43420;BME280;29017;51.514;-0.178;2023-05-24T13:06:37;102033.78;;;21.02;51.54
43420;BME280;29017;51.514;-0.178;2023-05-24T13:09:06;102038.25;;;20.95;51.99
43420;BME280;29017;51.514;-0.178;2023-05-24T13:11:36;102045.00;;;20.91;51.90